sensor_id;sensor_type;location;lat;lon;timestamp;P1;durP1;ratioP1;P2;durP2;ratioP2
49101;SDS011;34913;47.520;19.186;2022-11-04T00:01:25;33.55;;;17.85;;
49101;SDS011;34913;47.520;19.186;2022-11-04T00:03:51;33.17;;;16.80;;
49101;SDS011;34913;47.520;19.186;2022-11-04T00:06:18;34.70;;;17.73;;
49101;SDS011;34913;47.520;19.186;2022-11-04T00:08:54;33.85;;;17.08;;
49101;SDS011;34913;47.520;19.186;2022-11-04T00:11:20;32.20;;;16.95;;
49101;SDS011;34913;47.520;19.186;2022-11-04T00:14:05;33.50;;;17.15;;
49101;SDS011;34913;47.520;19.186;2022-11-04T00:16:32;32.70;;;17.00;;
49101;SDS011;34913;47.520;19.186;2022-11-04T00:19:16;31.63;;;17.10;;
49101;SDS011;34913;47.520;19.186;2022-11-04T00:21:42;37.72;;;17.38;;
49101;SDS011;34913;47.520;19.186;2022-11-04T00:24:26;35.47;;;18.30;;
49101;SDS011;34913;47.520;19.186;2022-11-04T00:27:10;35.38;;;17.52;;
49101;SDS011;34913;47.520;19.186;2022-11-04T00:29:59;34.00;;;17.33;;
49101;SDS011;34913;47.520;19.186;2022-11-04T00:32:25;33.72;;;17.60;;
49101;SDS011;34913;47.520;19.186;2022-11-04T00:35:09;37.03;;;17.85;;
49101;SDS011;34913;47.520;19.186;2022-11-04T00:37:39;39.45;;;19.13;;
49101;SDS011;34913;47.520;19.186;2022-11-04T00:40:07;38.90;;;17.88;;
49101;SDS011;34913;47.520;19.186;2022-11-04T00:42:34;41.45;;;19.00;;
49101;SDS011;34913;47.520;19.186;2022-11-04T00:44:59;38.78;;;18.38;;
49101;SDS011;34913;47.520;19.186;2022-11-04T00:47:25;42.47;;;20.00;;
49101;SDS011;34913;47.520;19.186;2022-11-04T00:49:51;43.35;;;20.30;;
49101;SDS011;34913;47.520;19.186;2022-11-04T00:52:16;45.50;;;22.17;;
49101;SDS011;34913;47.520;19.186;2022-11-04T00:54:42;43.40;;;21.10;;
49101;SDS011;34913;47.520;19.186;2022-11-04T00:57:11;49.95;;;22.13;;
49101;SDS011;34913;47.520;19.186;2022-11-04T00:59:37;41.65;;;20.45;;
49101;SDS011;34913;47.520;19.186;2022-11-04T01:02:04;46.22;;;22.73;;
49101;SDS011;34913;47.520;19.186;2022-11-04T01:04:30;47.92;;;21.25;;
49101;SDS011;34913;47.520;19.186;2022-11-04T01:06:56;46.05;;;22.83;;
49101;SDS011;34913;47.520;19.186;2022-11-04T01:09:22;53.38;;;22.83;;
49101;SDS011;34913;47.520;19.186;2022-11-04T01:11:47;46.92;;;22.33;;
49101;SDS011;34913;47.520;19.186;2022-11-04T01:14:13;45.40;;;23.05;;
49101;SDS011;34913;47.520;19.186;2022-11-04T01:16:39;50.05;;;22.75;;
49101;SDS011;34913;47.520;19.186;2022-11-04T01:19:05;48.17;;;23.25;;
49101;SDS011;34913;47.520;19.186;2022-11-04T01:21:30;48.80;;;22.20;;
49101;SDS011;34913;47.520;19.186;2022-11-04T01:23:56;49.42;;;23.10;;
49101;SDS011;34913;47.520;19.186;2022-11-04T01:26:23;52.10;;;22.27;;
49101;SDS011;34913;47.520;19.186;2022-11-04T01:28:50;48.50;;;22.08;;
49101;SDS011;34913;47.520;19.186;2022-11-04T01:31:19;46.28;;;21.88;;
49101;SDS011;34913;47.520;19.186;2022-11-04T01:33:46;51.50;;;22.63;;
49101;SDS011;34913;47.520;19.186;2022-11-04T01:36:12;47.45;;;21.58;;
49101;SDS011;34913;47.520;19.186;2022-11-04T01:38:38;46.97;;;23.25;;
49101;SDS011;34913;47.520;19.186;2022-11-04T01:41:04;48.15;;;22.90;;
49101;SDS011;34913;47.520;19.186;2022-11-04T01:46:37;45.05;;;20.92;;
49101;SDS011;34913;47.520;19.186;2022-11-04T01:51:50;42.85;;;19.75;;
49101;SDS011;34913;47.520;19.186;2022-11-04T01:54:21;46.90;;;21.73;;
49101;SDS011;34913;47.520;19.186;2022-11-04T01:56:46;46.83;;;20.90;;
49101;SDS011;34913;47.520;19.186;2022-11-04T01:59:18;41.67;;;20.20;;
49101;SDS011;34913;47.520;19.186;2022-11-04T02:01:46;43.50;;;20.17;;
49101;SDS011;34913;47.520;19.186;2022-11-04T02:04:12;45.60;;;20.63;;
49101;SDS011;34913;47.520;19.186;2022-11-04T02:06:51;47.10;;;21.00;;
49101;SDS011;34913;47.520;19.186;2022-11-04T02:09:19;43.72;;;21.65;;
49101;SDS011;34913;47.520;19.186;2022-11-04T02:11:46;51.35;;;22.02;;
49101;SDS011;34913;47.520;19.186;2022-11-04T02:14:30;45.45;;;21.60;;
49101;SDS011;34913;47.520;19.186;2022-11-04T02:30:18;49.40;;;23.10;;
49101;SDS011;34913;47.520;19.186;2022-11-04T02:38:28;55.63;;;23.25;;
49101;SDS011;34913;47.520;19.186;2022-11-04T02:43:44;55.85;;;24.55;;
49101;SDS011;34913;47.520;19.186;2022-11-04T02:46:34;54.47;;;24.33;;
49101;SDS011;34913;47.520;19.186;2022-11-04T02:49:11;54.22;;;25.38;;
49101;SDS011;34913;47.520;19.186;2022-11-04T02:54:27;52.50;;;25.52;;
49101;SDS011;34913;47.520;19.186;2022-11-04T02:56:59;54.92;;;26.33;;
49101;SDS011;34913;47.520;19.186;2022-11-04T03:02:13;51.47;;;25.70;;
49101;SDS011;34913;47.520;19.186;2022-11-04T03:04:45;51.70;;;25.40;;
49101;SDS011;34913;47.520;19.186;2022-11-04T03:07:17;53.63;;;26.13;;
49101;SDS011;34913;47.520;19.186;2022-11-04T03:09:49;52.53;;;25.25;;
49101;SDS011;34913;47.520;19.186;2022-11-04T03:12:20;52.90;;;24.10;;
49101;SDS011;34913;47.520;19.186;2022-11-04T03:14:50;49.47;;;23.17;;
49101;SDS011;34913;47.520;19.186;2022-11-04T03:17:22;48.08;;;23.73;;
49101;SDS011;34913;47.520;19.186;2022-11-04T03:19:55;46.00;;;22.67;;
49101;SDS011;34913;47.520;19.186;2022-11-04T03:22:24;46.22;;;23.15;;
49101;SDS011;34913;47.520;19.186;2022-11-04T03:24:53;45.50;;;23.40;;
49101;SDS011;34913;47.520;19.186;2022-11-04T03:30:07;51.00;;;23.73;;
49101;SDS011;34913;47.520;19.186;2022-11-04T03:35:01;46.90;;;23.92;;
49101;SDS011;34913;47.520;19.186;2022-11-04T03:37:27;50.95;;;23.52;;
49101;SDS011;34913;47.520;19.186;2022-11-04T03:39:52;53.88;;;23.27;;
49101;SDS011;34913;47.520;19.186;2022-11-04T03:42:18;47.47;;;22.73;;
49101;SDS011;34913;47.520;19.186;2022-11-04T03:44:49;53.70;;;24.23;;
49101;SDS011;34913;47.520;19.186;2022-11-04T03:47:16;48.88;;;23.23;;
49101;SDS011;34913;47.520;19.186;2022-11-04T03:49:49;61.15;;;24.23;;
49101;SDS011;34913;47.520;19.186;2022-11-04T03:52:18;51.78;;;22.90;;
49101;SDS011;34913;47.520;19.186;2022-11-04T03:54:44;54.25;;;24.42;;
49101;SDS011;34913;47.520;19.186;2022-11-04T04:02:38;52.80;;;23.00;;
49101;SDS011;34913;47.520;19.186;2022-11-04T04:05:10;43.95;;;21.60;;
49101;SDS011;34913;47.520;19.186;2022-11-04T04:07:44;57.08;;;23.45;;
49101;SDS011;34913;47.520;19.186;2022-11-04T04:15:51;55.65;;;24.52;;
49101;SDS011;34913;47.520;19.186;2022-11-04T04:18:35;57.42;;;25.35;;
49101;SDS011;34913;47.520;19.186;2022-11-04T04:21:08;55.58;;;24.05;;
49101;SDS011;34913;47.520;19.186;2022-11-04T04:23:37;52.10;;;24.65;;
49101;SDS011;34913;47.520;19.186;2022-11-04T04:26:24;53.67;;;25.05;;
49101;SDS011;34913;47.520;19.186;2022-11-04T04:29:08;63.65;;;26.67;;
49101;SDS011;34913;47.520;19.186;2022-11-04T04:31:36;58.30;;;26.20;;
49101;SDS011;34913;47.520;19.186;2022-11-04T04:34:26;64.40;;;27.60;;
49101;SDS011;34913;47.520;19.186;2022-11-04T04:39:26;61.30;;;27.08;;
49101;SDS011;34913;47.520;19.186;2022-11-04T04:42:24;62.22;;;26.52;;
49101;SDS011;34913;47.520;19.186;2022-11-04T04:45:08;61.05;;;25.73;;
49101;SDS011;34913;47.520;19.186;2022-11-04T04:47:43;63.58;;;26.48;;
49101;SDS011;34913;47.520;19.186;2022-11-04T04:50:15;63.05;;;27.52;;
49101;SDS011;34913;47.520;19.186;2022-11-04T04:52:43;63.00;;;26.40;;
49101;SDS011;34913;47.520;19.186;2022-11-04T04:55:11;57.22;;;25.67;;
49101;SDS011;34913;47.520;19.186;2022-11-04T04:57:37;52.42;;;23.90;;
49101;SDS011;34913;47.520;19.186;2022-11-04T05:00:03;56.50;;;25.77;;
49101;SDS011;34913;47.520;19.186;2022-11-04T05:02:31;53.58;;;24.65;;
49101;SDS011;34913;47.520;19.186;2022-11-04T05:04:56;55.13;;;25.30;;
49101;SDS011;34913;47.520;19.186;2022-11-04T05:07:23;55.58;;;24.80;;
49101;SDS011;34913;47.520;19.186;2022-11-04T05:09:49;51.58;;;23.52;;
49101;SDS011;34913;47.520;19.186;2022-11-04T05:12:14;52.25;;;23.73;;
49101;SDS011;34913;47.520;19.186;2022-11-04T05:14:40;46.55;;;23.55;;
49101;SDS011;34913;47.520;19.186;2022-11-04T05:17:05;51.13;;;23.20;;
49101;SDS011;34913;47.520;19.186;2022-11-04T05:19:31;43.72;;;22.35;;
49101;SDS011;34913;47.520;19.186;2022-11-04T05:21:56;42.75;;;21.73;;
49101;SDS011;34913;47.520;19.186;2022-11-04T05:24:22;43.88;;;21.33;;
49101;SDS011;34913;47.520;19.186;2022-11-04T05:26:48;43.05;;;21.92;;
49101;SDS011;34913;47.520;19.186;2022-11-04T05:29:13;43.40;;;20.88;;
49101;SDS011;34913;47.520;19.186;2022-11-04T05:31:38;44.88;;;21.73;;
49101;SDS011;34913;47.520;19.186;2022-11-04T05:34:04;45.30;;;21.88;;
49101;SDS011;34913;47.520;19.186;2022-11-04T05:36:30;45.92;;;22.45;;
49101;SDS011;34913;47.520;19.186;2022-11-04T05:38:57;48.92;;;24.10;;
49101;SDS011;34913;47.520;19.186;2022-11-04T05:41:22;50.20;;;25.08;;
49101;SDS011;34913;47.520;19.186;2022-11-04T05:43:54;50.35;;;24.63;;
49101;SDS011;34913;47.520;19.186;2022-11-04T05:46:23;49.92;;;24.52;;
49101;SDS011;34913;47.520;19.186;2022-11-04T05:48:49;53.88;;;25.25;;
49101;SDS011;34913;47.520;19.186;2022-11-04T05:51:17;58.50;;;25.50;;
49101;SDS011;34913;47.520;19.186;2022-11-04T05:53:44;50.45;;;24.48;;
49101;SDS011;34913;47.520;19.186;2022-11-04T05:56:10;52.42;;;25.15;;
49101;SDS011;34913;47.520;19.186;2022-11-04T05:58:35;58.20;;;25.90;;
49101;SDS011;34913;47.520;19.186;2022-11-04T06:01:23;53.13;;;24.98;;
49101;SDS011;34913;47.520;19.186;2022-11-04T06:03:48;54.78;;;25.15;;
49101;SDS011;34913;47.520;19.186;2022-11-04T06:06:14;54.78;;;24.20;;
49101;SDS011;34913;47.520;19.186;2022-11-04T06:08:40;54.72;;;24.88;;
49101;SDS011;34913;47.520;19.186;2022-11-04T06:11:05;50.42;;;24.55;;
49101;SDS011;34913;47.520;19.186;2022-11-04T06:13:30;55.47;;;24.23;;
49101;SDS011;34913;47.520;19.186;2022-11-04T06:15:56;53.13;;;25.13;;
49101;SDS011;34913;47.520;19.186;2022-11-04T06:18:21;47.55;;;24.13;;
49101;SDS011;34913;47.520;19.186;2022-11-04T06:20:47;50.90;;;23.65;;
49101;SDS011;34913;47.520;19.186;2022-11-04T06:23:12;52.30;;;25.00;;
49101;SDS011;34913;47.520;19.186;2022-11-04T06:25:38;49.63;;;23.13;;
49101;SDS011;34913;47.520;19.186;2022-11-04T06:28:03;50.00;;;24.60;;
49101;SDS011;34913;47.520;19.186;2022-11-04T06:30:28;47.97;;;24.48;;
49101;SDS011;34913;47.520;19.186;2022-11-04T06:32:54;53.47;;;24.95;;
49101;SDS011;34913;47.520;19.186;2022-11-04T06:35:19;54.05;;;26.05;;
49101;SDS011;34913;47.520;19.186;2022-11-04T06:37:45;52.10;;;24.92;;
49101;SDS011;34913;47.520;19.186;2022-11-04T06:40:10;57.03;;;26.08;;
49101;SDS011;34913;47.520;19.186;2022-11-04T06:42:36;52.42;;;25.30;;
49101;SDS011;34913;47.520;19.186;2022-11-04T06:45:01;50.03;;;24.08;;
49101;SDS011;34913;47.520;19.186;2022-11-04T06:47:27;48.70;;;24.08;;
49101;SDS011;34913;47.520;19.186;2022-11-04T06:49:52;52.42;;;26.30;;
49101;SDS011;34913;47.520;19.186;2022-11-04T06:52:18;55.72;;;26.15;;
49101;SDS011;34913;47.520;19.186;2022-11-04T06:54:43;61.97;;;25.60;;
49101;SDS011;34913;47.520;19.186;2022-11-04T06:57:09;51.60;;;24.65;;
49101;SDS011;34913;47.520;19.186;2022-11-04T06:59:35;51.78;;;25.52;;
49101;SDS011;34913;47.520;19.186;2022-11-04T07:02:01;51.00;;;25.45;;
49101;SDS011;34913;47.520;19.186;2022-11-04T07:04:26;50.20;;;24.30;;
49101;SDS011;34913;47.520;19.186;2022-11-04T07:06:52;53.50;;;25.20;;
49101;SDS011;34913;47.520;19.186;2022-11-04T07:09:18;49.25;;;24.38;;
49101;SDS011;34913;47.520;19.186;2022-11-04T07:11:43;54.53;;;25.90;;
49101;SDS011;34913;47.520;19.186;2022-11-04T07:14:09;48.58;;;25.27;;
49101;SDS011;34913;47.520;19.186;2022-11-04T07:16:35;54.92;;;25.92;;
49101;SDS011;34913;47.520;19.186;2022-11-04T07:19:01;46.30;;;24.60;;
49101;SDS011;34913;47.520;19.186;2022-11-04T07:21:27;49.95;;;23.92;;
49101;SDS011;34913;47.520;19.186;2022-11-04T07:23:53;48.17;;;23.20;;
49101;SDS011;34913;47.520;19.186;2022-11-04T07:26:19;48.17;;;23.27;;
49101;SDS011;34913;47.520;19.186;2022-11-04T07:28:44;47.30;;;22.65;;
49101;SDS011;34913;47.520;19.186;2022-11-04T07:31:10;47.60;;;24.48;;
49101;SDS011;34913;47.520;19.186;2022-11-04T07:33:37;46.75;;;23.27;;
49101;SDS011;34913;47.520;19.186;2022-11-04T07:36:06;44.45;;;22.17;;
49101;SDS011;34913;47.520;19.186;2022-11-04T07:38:34;45.10;;;22.42;;
49101;SDS011;34913;47.520;19.186;2022-11-04T07:41:00;49.80;;;24.55;;
49101;SDS011;34913;47.520;19.186;2022-11-04T07:43:26;44.25;;;23.25;;
49101;SDS011;34913;47.520;19.186;2022-11-04T07:45:59;44.20;;;23.55;;
49101;SDS011;34913;47.520;19.186;2022-11-04T07:48:29;49.53;;;23.90;;
49101;SDS011;34913;47.520;19.186;2022-11-04T07:50:55;45.47;;;22.75;;
49101;SDS011;34913;47.520;19.186;2022-11-04T07:53:28;44.38;;;22.10;;
49101;SDS011;34913;47.520;19.186;2022-11-04T07:55:55;50.88;;;24.65;;
49101;SDS011;34913;47.520;19.186;2022-11-04T07:58:21;47.92;;;24.13;;
49101;SDS011;34913;47.520;19.186;2022-11-04T08:00:48;56.60;;;24.25;;
49101;SDS011;34913;47.520;19.186;2022-11-04T08:03:14;49.50;;;24.25;;
49101;SDS011;34913;47.520;19.186;2022-11-04T08:05:39;58.72;;;27.65;;
49101;SDS011;34913;47.520;19.186;2022-11-04T08:08:05;51.22;;;26.55;;
49101;SDS011;34913;47.520;19.186;2022-11-04T08:10:30;47.67;;;23.92;;
49101;SDS011;34913;47.520;19.186;2022-11-04T08:12:56;48.08;;;23.45;;
49101;SDS011;34913;47.520;19.186;2022-11-04T08:15:21;46.22;;;24.08;;
49101;SDS011;34913;47.520;19.186;2022-11-04T08:17:47;48.60;;;24.67;;
49101;SDS011;34913;47.520;19.186;2022-11-04T08:20:12;56.63;;;29.20;;
49101;SDS011;34913;47.520;19.186;2022-11-04T08:22:38;52.25;;;24.83;;
49101;SDS011;34913;47.520;19.186;2022-11-04T08:25:03;50.40;;;25.95;;
49101;SDS011;34913;47.520;19.186;2022-11-04T08:27:29;45.92;;;25.48;;
49101;SDS011;34913;47.520;19.186;2022-11-04T08:29:55;52.42;;;26.42;;
49101;SDS011;34913;47.520;19.186;2022-11-04T08:32:21;51.45;;;26.80;;
49101;SDS011;34913;47.520;19.186;2022-11-04T08:34:46;53.65;;;27.25;;
49101;SDS011;34913;47.520;19.186;2022-11-04T08:37:13;48.65;;;24.88;;
49101;SDS011;34913;47.520;19.186;2022-11-04T08:39:40;51.67;;;25.65;;
49101;SDS011;34913;47.520;19.186;2022-11-04T08:42:06;51.30;;;25.92;;
49101;SDS011;34913;47.520;19.186;2022-11-04T08:44:31;54.35;;;26.92;;
49101;SDS011;34913;47.520;19.186;2022-11-04T08:46:58;52.35;;;25.88;;
49101;SDS011;34913;47.520;19.186;2022-11-04T08:49:24;56.42;;;27.67;;
49101;SDS011;34913;47.520;19.186;2022-11-04T08:51:50;49.63;;;26.30;;
49101;SDS011;34913;47.520;19.186;2022-11-04T08:54:21;50.33;;;26.13;;
49101;SDS011;34913;47.520;19.186;2022-11-04T08:56:47;50.88;;;26.88;;
49101;SDS011;34913;47.520;19.186;2022-11-04T08:59:13;50.35;;;26.45;;
49101;SDS011;34913;47.520;19.186;2022-11-04T09:01:39;48.92;;;26.90;;
49101;SDS011;34913;47.520;19.186;2022-11-04T09:04:06;52.10;;;28.55;;
49101;SDS011;34913;47.520;19.186;2022-11-04T09:06:37;55.55;;;28.40;;
49101;SDS011;34913;47.520;19.186;2022-11-04T09:09:05;48.78;;;27.25;;
49101;SDS011;34913;47.520;19.186;2022-11-04T09:11:35;51.95;;;26.92;;
49101;SDS011;34913;47.520;19.186;2022-11-04T09:14:02;53.92;;;28.58;;
49101;SDS011;34913;47.520;19.186;2022-11-04T09:16:28;53.40;;;27.85;;
49101;SDS011;34913;47.520;19.186;2022-11-04T09:18:56;58.17;;;29.05;;
49101;SDS011;34913;47.520;19.186;2022-11-04T09:21:22;54.58;;;28.73;;
49101;SDS011;34913;47.520;19.186;2022-11-04T09:23:49;50.53;;;27.75;;
49101;SDS011;34913;47.520;19.186;2022-11-04T09:26:14;53.70;;;27.65;;
49101;SDS011;34913;47.520;19.186;2022-11-04T09:28:40;50.35;;;27.05;;
49101;SDS011;34913;47.520;19.186;2022-11-04T09:31:07;52.20;;;27.55;;
49101;SDS011;34913;47.520;19.186;2022-11-04T09:33:43;49.55;;;28.15;;
49101;SDS011;34913;47.520;19.186;2022-11-04T09:36:09;52.50;;;27.48;;
49101;SDS011;34913;47.520;19.186;2022-11-04T09:38:36;54.53;;;28.23;;
49101;SDS011;34913;47.520;19.186;2022-11-04T09:43:52;51.78;;;27.98;;
49101;SDS011;34913;47.520;19.186;2022-11-04T09:46:27;55.00;;;28.40;;
49101;SDS011;34913;47.520;19.186;2022-11-04T09:48:56;56.70;;;29.92;;
49101;SDS011;34913;47.520;19.186;2022-11-04T09:51:25;54.67;;;30.27;;
49101;SDS011;34913;47.520;19.186;2022-11-04T09:53:52;54.60;;;31.08;;
49101;SDS011;34913;47.520;19.186;2022-11-04T09:56:27;57.28;;;29.25;;
49101;SDS011;34913;47.520;19.186;2022-11-04T09:59:00;52.95;;;29.70;;
49101;SDS011;34913;47.520;19.186;2022-11-04T10:01:33;59.55;;;31.58;;
49101;SDS011;34913;47.520;19.186;2022-11-04T10:25:53;60.17;;;32.58;;
49101;SDS011;34913;47.520;19.186;2022-11-04T10:28:29;60.78;;;32.70;;
49101;SDS011;34913;47.520;19.186;2022-11-04T10:31:05;61.00;;;32.67;;
49101;SDS011;34913;47.520;19.186;2022-11-04T10:33:33;63.63;;;34.55;;
49101;SDS011;34913;47.520;19.186;2022-11-04T10:36:06;62.83;;;34.08;;
49101;SDS011;34913;47.520;19.186;2022-11-04T10:41:02;62.53;;;33.63;;
49101;SDS011;34913;47.520;19.186;2022-11-04T10:43:53;60.25;;;34.25;;
49101;SDS011;34913;47.520;19.186;2022-11-04T10:51:45;63.30;;;34.28;;
49101;SDS011;34913;47.520;19.186;2022-11-04T10:54:10;59.10;;;33.67;;
49101;SDS011;34913;47.520;19.186;2022-11-04T10:56:44;61.90;;;35.40;;
49101;SDS011;34913;47.520;19.186;2022-11-04T10:59:25;58.90;;;33.65;;
49101;SDS011;34913;47.520;19.186;2022-11-04T11:01:57;60.65;;;34.22;;
49101;SDS011;34913;47.520;19.186;2022-11-04T11:04:26;60.05;;;34.10;;
49101;SDS011;34913;47.520;19.186;2022-11-04T11:06:54;61.88;;;35.75;;
49101;SDS011;34913;47.520;19.186;2022-11-04T11:09:25;62.45;;;35.60;;
49101;SDS011;34913;47.520;19.186;2022-11-04T11:16:52;62.78;;;35.42;;
49101;SDS011;34913;47.520;19.186;2022-11-04T11:19:19;61.70;;;35.20;;
49101;SDS011;34913;47.520;19.186;2022-11-04T11:21:49;62.47;;;33.92;;
49101;SDS011;34913;47.520;19.186;2022-11-04T11:26:45;58.05;;;32.63;;
49101;SDS011;34913;47.520;19.186;2022-11-04T11:29:21;62.35;;;35.45;;
49101;SDS011;34913;47.520;19.186;2022-11-04T11:31:49;60.08;;;34.17;;
49101;SDS011;34913;47.520;19.186;2022-11-04T11:34:21;58.13;;;33.00;;
49101;SDS011;34913;47.520;19.186;2022-11-04T11:36:51;59.28;;;33.17;;
49101;SDS011;34913;47.520;19.186;2022-11-04T11:39:19;63.30;;;35.08;;
49101;SDS011;34913;47.520;19.186;2022-11-04T11:42:00;58.33;;;34.35;;
49101;SDS011;34913;47.520;19.186;2022-11-04T11:47:06;59.75;;;33.60;;
49101;SDS011;34913;47.520;19.186;2022-11-04T11:49:43;61.05;;;34.80;;
49101;SDS011;34913;47.520;19.186;2022-11-04T11:52:30;60.25;;;34.65;;
49101;SDS011;34913;47.520;19.186;2022-11-04T11:55:19;61.50;;;34.70;;
49101;SDS011;34913;47.520;19.186;2022-11-04T12:00:32;65.73;;;35.13;;
49101;SDS011;34913;47.520;19.186;2022-11-04T12:05:37;61.20;;;34.17;;
49101;SDS011;34913;47.520;19.186;2022-11-04T12:14:16;61.90;;;35.08;;
49101;SDS011;34913;47.520;19.186;2022-11-04T12:17:56;61.17;;;34.47;;
49101;SDS011;34913;47.520;19.186;2022-11-04T12:20:16;60.13;;;34.63;;
49101;SDS011;34913;47.520;19.186;2022-11-04T12:31:30;57.67;;;32.05;;
49101;SDS011;34913;47.520;19.186;2022-11-04T12:37:01;61.08;;;33.20;;
49101;SDS011;34913;47.520;19.186;2022-11-04T12:47:34;56.83;;;31.45;;
49101;SDS011;34913;47.520;19.186;2022-11-04T12:50:21;56.92;;;31.05;;
49101;SDS011;34913;47.520;19.186;2022-11-04T13:01:18;47.85;;;27.83;;
49101;SDS011;34913;47.520;19.186;2022-11-04T13:03:52;50.63;;;28.58;;
49101;SDS011;34913;47.520;19.186;2022-11-04T13:06:24;47.13;;;27.55;;
49101;SDS011;34913;47.520;19.186;2022-11-04T13:08:59;43.47;;;27.13;;
49101;SDS011;34913;47.520;19.186;2022-11-04T13:13:59;45.03;;;26.95;;
49101;SDS011;34913;47.520;19.186;2022-11-04T13:16:31;43.75;;;25.92;;
49101;SDS011;34913;47.520;19.186;2022-11-04T13:19:01;40.85;;;24.58;;
49101;SDS011;34913;47.520;19.186;2022-11-04T13:21:29;43.03;;;25.20;;
49101;SDS011;34913;47.520;19.186;2022-11-04T13:24:03;44.20;;;24.58;;
49101;SDS011;34913;47.520;19.186;2022-11-04T13:26:35;40.58;;;24.92;;
49101;SDS011;34913;47.520;19.186;2022-11-04T13:29:11;43.47;;;24.25;;
49101;SDS011;34913;47.520;19.186;2022-11-04T13:34:47;37.30;;;22.73;;
49101;SDS011;34913;47.520;19.186;2022-11-04T13:40:45;39.60;;;23.10;;
49101;SDS011;34913;47.520;19.186;2022-11-04T13:48:34;35.50;;;22.63;;
49101;SDS011;34913;47.520;19.186;2022-11-04T13:51:09;36.10;;;22.40;;
49101;SDS011;34913;47.520;19.186;2022-11-04T13:53:46;39.60;;;23.25;;
49101;SDS011;34913;47.520;19.186;2022-11-04T13:56:33;34.50;;;22.52;;
49101;SDS011;34913;47.520;19.186;2022-11-04T13:59:06;40.55;;;22.63;;
49101;SDS011;34913;47.520;19.186;2022-11-04T14:01:38;39.88;;;22.50;;
49101;SDS011;34913;47.520;19.186;2022-11-04T14:14:43;40.38;;;21.85;;
49101;SDS011;34913;47.520;19.186;2022-11-04T14:19:57;37.75;;;22.10;;
49101;SDS011;34913;47.520;19.186;2022-11-04T14:33:07;36.60;;;22.77;;
49101;SDS011;34913;47.520;19.186;2022-11-04T14:35:46;35.70;;;22.27;;
49101;SDS011;34913;47.520;19.186;2022-11-04T14:38:29;39.45;;;22.63;;
49101;SDS011;34913;47.520;19.186;2022-11-04T14:41:14;38.17;;;22.75;;
49101;SDS011;34913;47.520;19.186;2022-11-04T14:43:44;39.10;;;21.73;;
49101;SDS011;34913;47.520;19.186;2022-11-04T14:46:12;36.92;;;21.60;;
49101;SDS011;34913;47.520;19.186;2022-11-04T14:48:58;34.85;;;21.23;;
49101;SDS011;34913;47.520;19.186;2022-11-04T14:51:27;33.67;;;20.83;;
49101;SDS011;34913;47.520;19.186;2022-11-04T14:53:58;34.88;;;20.45;;
49101;SDS011;34913;47.520;19.186;2022-11-04T14:56:29;42.03;;;21.27;;
49101;SDS011;34913;47.520;19.186;2022-11-04T14:58:56;36.13;;;21.27;;
49101;SDS011;34913;47.520;19.186;2022-11-04T15:01:32;37.70;;;20.95;;
49101;SDS011;34913;47.520;19.186;2022-11-04T15:04:05;34.05;;;21.08;;
49101;SDS011;34913;47.520;19.186;2022-11-04T15:06:41;35.53;;;21.00;;
49101;SDS011;34913;47.520;19.186;2022-11-04T15:09:19;35.65;;;20.02;;
49101;SDS011;34913;47.520;19.186;2022-11-04T15:12:05;35.92;;;20.67;;
49101;SDS011;34913;47.520;19.186;2022-11-04T15:17:51;39.15;;;21.48;;
49101;SDS011;34913;47.520;19.186;2022-11-04T15:20:24;36.08;;;20.00;;
49101;SDS011;34913;47.520;19.186;2022-11-04T15:22:54;34.63;;;20.85;;
49101;SDS011;34913;47.520;19.186;2022-11-04T15:25:21;35.30;;;20.40;;
49101;SDS011;34913;47.520;19.186;2022-11-04T15:27:47;33.10;;;19.95;;
49101;SDS011;34913;47.520;19.186;2022-11-04T15:30:20;36.17;;;21.00;;
49101;SDS011;34913;47.520;19.186;2022-11-04T15:33:00;35.70;;;20.55;;
49101;SDS011;34913;47.520;19.186;2022-11-04T15:35:28;34.55;;;20.58;;
49101;SDS011;34913;47.520;19.186;2022-11-04T15:37:56;33.88;;;20.30;;
49101;SDS011;34913;47.520;19.186;2022-11-04T15:40:23;37.03;;;21.23;;
49101;SDS011;34913;47.520;19.186;2022-11-04T15:42:53;38.10;;;21.75;;
49101;SDS011;34913;47.520;19.186;2022-11-04T15:53:45;36.35;;;23.13;;
49101;SDS011;34913;47.520;19.186;2022-11-04T15:56:12;37.20;;;22.30;;
49101;SDS011;34913;47.520;19.186;2022-11-04T15:58:40;36.85;;;21.60;;
49101;SDS011;34913;47.520;19.186;2022-11-04T16:01:07;37.83;;;22.05;;
49101;SDS011;34913;47.520;19.186;2022-11-04T16:03:37;37.75;;;21.67;;
49101;SDS011;34913;47.520;19.186;2022-11-04T16:06:04;36.90;;;22.27;;
49101;SDS011;34913;47.520;19.186;2022-11-04T16:08:32;34.85;;;21.00;;
49101;SDS011;34913;47.520;19.186;2022-11-04T16:11:08;36.55;;;22.13;;
49101;SDS011;34913;47.520;19.186;2022-11-04T16:13:36;34.80;;;21.73;;
49101;SDS011;34913;47.520;19.186;2022-11-04T16:18:34;42.07;;;23.60;;
49101;SDS011;34913;47.520;19.186;2022-11-04T16:21:03;38.85;;;22.17;;
49101;SDS011;34913;47.520;19.186;2022-11-04T16:23:31;37.65;;;22.50;;
49101;SDS011;34913;47.520;19.186;2022-11-04T16:26:12;39.55;;;23.13;;
49101;SDS011;34913;47.520;19.186;2022-11-04T16:28:38;38.28;;;22.52;;
49101;SDS011;34913;47.520;19.186;2022-11-04T16:31:06;37.38;;;22.65;;
49101;SDS011;34913;47.520;19.186;2022-11-04T16:33:47;43.28;;;22.27;;
49101;SDS011;34913;47.520;19.186;2022-11-04T16:36:13;36.88;;;21.23;;
49101;SDS011;34913;47.520;19.186;2022-11-04T16:38:57;40.40;;;21.85;;
49101;SDS011;34913;47.520;19.186;2022-11-04T16:41:25;52.00;;;23.70;;
49101;SDS011;34913;47.520;19.186;2022-11-04T16:43:52;35.75;;;22.17;;
49101;SDS011;34913;47.520;19.186;2022-11-04T16:46:19;35.47;;;22.15;;
49101;SDS011;34913;47.520;19.186;2022-11-04T16:48:46;38.10;;;22.83;;
49101;SDS011;34913;47.520;19.186;2022-11-04T16:51:16;44.38;;;23.92;;
49101;SDS011;34913;47.520;19.186;2022-11-04T16:53:46;37.85;;;23.77;;
49101;SDS011;34913;47.520;19.186;2022-11-04T16:56:13;37.20;;;23.00;;
49101;SDS011;34913;47.520;19.186;2022-11-04T16:58:39;40.83;;;23.60;;
49101;SDS011;34913;47.520;19.186;2022-11-04T17:01:04;39.33;;;23.60;;
49101;SDS011;34913;47.520;19.186;2022-11-04T17:03:30;41.28;;;24.40;;
49101;SDS011;34913;47.520;19.186;2022-11-04T17:05:56;43.72;;;23.52;;
49101;SDS011;34913;47.520;19.186;2022-11-04T17:08:24;41.47;;;23.67;;
49101;SDS011;34913;47.520;19.186;2022-11-04T17:10:50;44.53;;;23.95;;
49101;SDS011;34913;47.520;19.186;2022-11-04T17:13:16;37.55;;;22.92;;
49101;SDS011;34913;47.520;19.186;2022-11-04T17:15:42;40.35;;;24.63;;
49101;SDS011;34913;47.520;19.186;2022-11-04T17:18:08;37.53;;;23.92;;
49101;SDS011;34913;47.520;19.186;2022-11-04T17:20:39;40.83;;;23.75;;
49101;SDS011;34913;47.520;19.186;2022-11-04T17:23:05;39.90;;;23.35;;
49101;SDS011;34913;47.520;19.186;2022-11-04T17:25:30;42.30;;;24.00;;
49101;SDS011;34913;47.520;19.186;2022-11-04T17:27:56;38.63;;;22.45;;
49101;SDS011;34913;47.520;19.186;2022-11-04T17:30:21;39.90;;;23.35;;